createdAt,value
2023-04-01T00:01:15.815Z,15.30
2023-04-01T00:03:44.517Z,12.50
2023-04-01T00:06:15.644Z,12.70
2023-04-01T00:08:43.705Z,13.80
2023-04-01T00:11:11.503Z,12.50
2023-04-01T00:13:39.523Z,10.90
2023-04-01T00:16:19.940Z,12.60
2023-04-01T00:18:49.474Z,12.70
2023-04-01T00:21:17.662Z,11.30
2023-04-01T00:23:45.367Z,14.60
2023-04-01T00:26:13.665Z,14.70
2023-04-01T00:28:41.785Z,12.40
2023-04-01T00:31:11.388Z,12.00
2023-04-01T00:33:41.013Z,10.70
2023-04-01T00:36:17.921Z,11.60
2023-04-01T00:38:46.918Z,12.40
2023-04-01T00:41:16.693Z,8.90
2023-04-01T00:43:47.386Z,14.50
2023-04-01T00:46:15.571Z,10.80
2023-04-01T00:48:49.463Z,14.60
2023-04-01T00:51:22.873Z,13.00
2023-04-01T00:53:53.608Z,16.90
2023-04-01T00:56:27.972Z,14.70
2023-04-01T00:59:01.527Z,13.80
2023-04-01T01:01:32.300Z,13.00
2023-04-01T01:04:00.739Z,12.30
2023-04-01T01:06:40.349Z,15.30
2023-04-01T01:09:17.471Z,13.10
2023-04-01T01:11:56.084Z,15.80
2023-04-01T01:14:29.661Z,12.60
2023-04-01T01:17:13.205Z,12.50
2023-04-01T01:19:57.107Z,13.90
2023-04-01T01:22:50.855Z,14.00
2023-04-01T01:25:55.905Z,14.80
2023-04-01T01:28:51.789Z,14.40
2023-04-01T01:31:37.790Z,13.60
2023-04-01T01:34:14.647Z,14.10
2023-04-01T01:36:46.160Z,18.30
2023-04-01T01:39:15.457Z,15.30
2023-04-01T01:41:46.097Z,15.00
2023-04-01T01:44:16.401Z,18.50
2023-04-01T01:46:45.840Z,16.30
2023-04-01T01:49:16.024Z,13.30
2023-04-01T01:51:44.287Z,15.20
2023-04-01T01:54:17.559Z,16.60
2023-04-01T01:56:49.665Z,16.90
2023-04-01T01:59:21.982Z,14.90
2023-04-01T02:01:53.079Z,15.10
2023-04-01T02:04:22.710Z,12.10
2023-04-01T02:07:04.461Z,16.20
2023-04-01T02:09:32.285Z,15.00
2023-04-01T02:12:05.099Z,14.70
2023-04-01T02:14:53.898Z,16.20
2023-04-01T02:17:24.476Z,15.00
2023-04-01T02:20:00.357Z,18.70
2023-04-01T02:22:32.612Z,18.80
2023-04-01T02:25:07.266Z,15.30
2023-04-01T02:27:35.512Z,19.80
2023-04-01T02:30:04.034Z,16.40
2023-04-01T02:32:34.329Z,15.80
2023-04-01T02:35:06.879Z,17.40
2023-04-01T02:37:36.322Z,17.60
2023-04-01T02:40:08.482Z,18.10
2023-04-01T02:45:04.871Z,14.80
2023-04-01T02:47:32.758Z,14.40
2023-04-01T02:50:00.593Z,18.60
2023-04-01T02:52:30.403Z,12.50
2023-04-01T02:54:58.650Z,15.20
2023-04-01T02:57:27.019Z,11.40
2023-04-01T02:59:54.839Z,14.50
2023-04-01T03:02:22.679Z,15.80
2023-04-01T03:04:50.503Z,16.40
2023-04-01T03:07:18.169Z,15.50
2023-04-01T03:09:45.808Z,16.60
2023-04-01T03:12:13.508Z,18.20
2023-04-01T03:14:41.271Z,16.30
2023-04-01T03:17:08.940Z,16.00
2023-04-01T03:19:36.611Z,16.30
2023-04-01T03:22:04.284Z,16.30
2023-04-01T03:24:31.920Z,20.90
2023-04-01T03:26:59.636Z,15.20
2023-04-01T03:29:27.335Z,14.90
2023-04-01T03:31:55.028Z,14.80
2023-04-01T03:34:22.680Z,13.80
2023-04-01T03:36:50.685Z,16.30
2023-04-01T03:39:19.766Z,14.50
2023-04-01T03:41:47.648Z,13.10
2023-04-01T03:44:15.467Z,14.50
2023-04-01T03:46:43.344Z,13.90
2023-04-01T03:49:12.909Z,13.00
2023-04-01T03:51:42.671Z,11.10
2023-04-01T03:54:11.244Z,16.00
2023-04-01T03:56:39.259Z,12.90
2023-04-01T03:59:08.530Z,12.70
2023-04-01T04:01:36.499Z,10.80
2023-04-01T04:04:04.642Z,16.40
2023-04-01T04:06:33.516Z,10.70
2023-04-01T04:09:01.201Z,12.10
2023-04-01T04:11:28.838Z,13.20
2023-04-01T04:13:57.282Z,14.70
2023-04-01T04:16:26.282Z,13.40
2023-04-01T04:18:54.153Z,13.00
2023-04-01T04:21:21.894Z,13.30
2023-04-01T04:23:49.681Z,11.50
2023-04-01T04:26:17.360Z,12.80
2023-04-01T04:28:45.173Z,11.90
2023-04-01T04:31:20.152Z,10.70
2023-04-01T04:33:48.549Z,10.80
2023-04-01T04:36:16.601Z,9.00
2023-04-01T04:38:44.358Z,10.80
2023-04-01T04:41:13.984Z,10.40
2023-04-01T04:43:42.923Z,10.90
2023-04-01T04:46:11.282Z,10.50
2023-04-01T04:48:38.944Z,14.00
2023-04-01T04:51:06.810Z,16.10
2023-04-01T04:53:34.488Z,18.90
2023-04-01T04:56:02.144Z,20.30
2023-04-01T04:58:29.868Z,23.20
2023-04-01T05:00:57.630Z,31.80
2023-04-01T05:03:25.647Z,30.70
2023-04-01T05:05:55.841Z,32.60
2023-04-01T05:08:23.480Z,17.50
2023-04-01T05:10:51.137Z,18.20
2023-04-01T05:13:19.163Z,15.50
2023-04-01T05:15:46.960Z,15.20
2023-04-01T05:18:14.722Z,15.60
2023-04-01T05:20:48.368Z,13.70
2023-04-01T05:23:16.391Z,13.70
2023-04-01T05:25:46.160Z,15.90
2023-04-01T05:28:14.065Z,14.20
2023-04-01T05:30:42.910Z,18.40
2023-04-01T05:33:13.129Z,14.80
2023-04-01T05:35:41.637Z,14.00
2023-04-01T05:38:09.346Z,16.30
2023-04-01T05:40:37.025Z,14.90
2023-04-01T05:43:04.691Z,11.40
2023-04-01T05:45:32.620Z,15.20
2023-04-01T05:48:00.691Z,14.90
2023-04-01T05:50:28.461Z,15.60
2023-04-01T05:52:56.301Z,16.00
2023-04-01T05:55:24.308Z,16.80
2023-04-01T05:57:52.060Z,16.60
2023-04-01T06:00:21.013Z,22.50
2023-04-01T06:02:49.321Z,18.20
2023-04-01T06:05:26.424Z,15.80
2023-04-01T06:08:00.441Z,22.20
2023-04-01T06:10:48.703Z,19.90
2023-04-01T06:13:25.525Z,19.50
2023-04-01T06:16:02.447Z,18.00
2023-04-01T06:18:52.857Z,22.70
2023-04-01T06:21:49.975Z,16.90
2023-04-01T06:24:34.334Z,18.00
2023-04-01T06:27:33.169Z,18.00
2023-04-01T06:30:25.117Z,16.90
2023-04-01T06:33:03.322Z,18.70
2023-04-01T06:35:50.824Z,23.50
2023-04-01T06:38:34.875Z,20.60
2023-04-01T06:41:39.926Z,24.40
2023-04-01T06:44:38.043Z,23.50
2023-04-01T06:47:24.338Z,18.30
2023-04-01T06:50:23.418Z,18.90
2023-04-01T06:53:09.505Z,26.10
2023-04-01T06:55:49.825Z,22.70
2023-04-01T06:58:24.545Z,21.90
2023-04-01T07:00:56.077Z,20.90
2023-04-01T07:03:36.185Z,21.20
2023-04-01T07:06:17.213Z,20.40
2023-04-01T07:08:46.137Z,19.50
2023-04-01T07:11:29.516Z,19.90
2023-04-01T07:14:06.074Z,23.00
2023-04-01T07:16:39.379Z,21.20
2023-04-01T07:19:22.934Z,22.40
2023-04-01T07:22:06.264Z,22.40
2023-04-01T07:24:42.612Z,21.30
2023-04-01T07:27:13.020Z,22.00
2023-04-01T07:29:41.312Z,20.20
2023-04-01T07:32:18.012Z,21.20
2023-04-01T07:34:51.419Z,19.90
2023-04-01T07:38:07.492Z,19.00
2023-04-01T07:41:09.149Z,23.60
2023-04-01T07:43:56.753Z,17.90
2023-04-01T07:46:54.446Z,16.70
2023-04-01T07:49:34.771Z,21.70
2023-04-01T07:52:08.317Z,20.00
2023-04-01T07:54:50.323Z,22.50
2023-04-01T07:57:25.853Z,17.80
2023-04-01T08:00:21.174Z,17.00
2023-04-01T08:03:05.804Z,18.20
2023-04-01T08:05:58.767Z,20.40
2023-04-01T08:08:41.874Z,20.90
2023-04-01T08:11:23.173Z,17.90
2023-04-01T08:14:00.004Z,18.40
2023-04-01T08:16:40.355Z,19.30
2023-04-01T08:19:23.471Z,17.80
2023-04-01T08:21:58.671Z,15.80
2023-04-01T08:24:44.267Z,15.80
2023-04-01T08:27:30.544Z,15.70
2023-04-01T08:30:17.311Z,19.10
2023-04-01T08:32:59.525Z,17.90
2023-04-01T08:35:33.006Z,16.80
2023-04-01T08:38:09.360Z,14.00
2023-04-01T08:40:53.068Z,14.20
2023-04-01T08:43:39.486Z,12.20
2023-04-01T08:46:19.103Z,11.80
2023-04-01T08:49:14.230Z,10.80
2023-04-01T08:52:02.829Z,9.50
2023-04-01T08:55:01.637Z,13.10
2023-04-01T08:57:54.688Z,11.20
2023-04-01T09:00:56.046Z,7.30
2023-04-01T09:03:38.996Z,7.50
2023-04-01T09:06:44.099Z,6.60
2023-04-01T09:09:36.171Z,4.70
2023-04-01T09:12:31.522Z,5.50
2023-04-01T09:15:25.808Z,5.50
2023-04-01T09:18:17.344Z,4.20
2023-04-01T09:21:16.283Z,5.30
2023-04-01T09:23:43.915Z,4.50
2023-04-01T09:26:36.474Z,5.10
2023-04-01T09:29:29.465Z,6.40
2023-04-01T09:32:48.352Z,6.20
2023-04-01T09:35:45.097Z,5.20
2023-04-01T09:38:29.594Z,6.50
2023-04-01T09:41:19.933Z,4.70
2023-04-01T09:43:59.924Z,6.10
2023-04-01T09:46:46.583Z,5.80
2023-04-01T09:49:42.727Z,5.50
2023-04-01T09:52:23.003Z,7.70
2023-04-01T09:55:15.542Z,4.90
2023-04-01T09:58:11.231Z,5.00
2023-04-01T10:01:09.096Z,4.90
2023-04-01T10:04:01.351Z,4.80
2023-04-01T10:06:42.575Z,6.00
2023-04-01T10:09:28.716Z,7.20
2023-04-01T10:12:35.614Z,6.90
2023-04-01T10:15:24.798Z,5.40
2023-04-01T10:18:11.204Z,9.50
2023-04-01T10:20:39.624Z,8.30
2023-04-01T10:23:52.685Z,6.60
2023-04-01T10:26:42.228Z,7.90
2023-04-01T10:29:37.649Z,9.10
2023-04-01T10:32:17.468Z,7.50
2023-04-01T10:35:11.076Z,9.70
2023-04-01T10:37:47.696Z,9.90
2023-04-01T10:40:35.763Z,6.80
2023-04-01T10:43:22.167Z,6.30
2023-04-01T10:46:18.322Z,5.20
2023-04-01T10:51:51.216Z,3.60
2023-04-01T10:54:37.506Z,4.50
2023-04-01T10:57:42.919Z,4.20
2023-04-01T11:00:35.593Z,3.70
2023-04-01T11:03:41.624Z,4.30
2023-04-01T11:06:34.338Z,4.50
2023-04-01T11:09:49.159Z,4.80
2023-04-01T11:12:25.848Z,5.90
2023-04-01T11:15:15.534Z,4.40
2023-04-01T11:21:02.039Z,9.20
2023-04-01T11:24:04.476Z,7.70
2023-04-01T11:26:59.606Z,6.90
2023-04-01T11:29:44.370Z,6.50
2023-04-01T11:32:39.957Z,8.10
2023-04-01T11:35:49.796Z,6.80
2023-04-01T11:38:42.886Z,6.50
2023-04-01T11:41:29.232Z,7.10
2023-04-01T11:44:20.434Z,7.50
2023-04-01T11:46:51.665Z,7.80
2023-04-01T11:49:30.786Z,6.10
2023-04-01T11:52:10.481Z,7.60
2023-04-01T11:55:12.051Z,7.80
2023-04-01T11:58:16.040Z,7.40
2023-04-01T12:01:21.031Z,6.90
2023-04-01T12:04:08.152Z,9.40
2023-04-01T12:07:04.009Z,6.10
2023-04-01T12:09:51.654Z,6.60
2023-04-01T12:12:33.555Z,7.40
2023-04-01T12:15:28.244Z,6.20
2023-04-01T12:18:23.353Z,6.20
2023-04-01T12:21:04.791Z,8.70
2023-04-01T12:23:56.964Z,9.50
2023-04-01T12:26:36.116Z,8.40
2023-04-01T12:29:23.758Z,9.10
2023-04-01T12:32:02.559Z,8.60
2023-04-01T12:34:59.550Z,8.40
2023-04-01T12:37:51.941Z,9.70
2023-04-01T12:40:42.432Z,9.50
2023-04-01T12:43:38.535Z,9.20
2023-04-01T12:46:12.988Z,8.00
2023-04-01T12:49:11.003Z,7.90
2023-04-01T12:51:57.897Z,8.70
2023-04-01T12:54:44.900Z,6.80
2023-04-01T12:57:34.705Z,6.60
2023-04-01T13:00:21.746Z,7.30
2023-04-01T13:03:11.740Z,7.00
2023-04-01T13:06:08.423Z,6.30
2023-04-01T13:08:52.172Z,7.80
2023-04-01T13:11:53.776Z,9.40
2023-04-01T13:14:35.188Z,5.80
2023-04-01T13:17:24.152Z,7.70
2023-04-01T13:20:06.137Z,7.70
2023-04-01T13:22:49.293Z,9.10
2023-04-01T13:25:30.104Z,6.40
2023-04-01T13:28:07.348Z,5.10
2023-04-01T13:31:23.410Z,4.60
2023-04-01T13:34:11.292Z,3.00
2023-04-01T13:37:20.605Z,3.50
2023-04-01T13:40:32.848Z,2.60
2023-04-01T13:43:09.511Z,3.60
2023-04-01T13:46:22.770Z,2.50
2023-04-01T13:49:02.399Z,2.10
2023-04-01T13:51:53.660Z,3.70
2023-04-01T13:54:32.713Z,3.40
2023-04-01T13:57:22.425Z,3.60
2023-04-01T14:00:11.878Z,3.20
2023-04-01T14:02:56.087Z,3.80
2023-04-01T14:05:48.931Z,3.70
2023-04-01T14:08:35.601Z,3.00
2023-04-01T14:11:20.312Z,4.20
2023-04-01T14:14:15.721Z,3.20
2023-04-01T14:17:04.555Z,3.80
2023-04-01T14:20:18.481Z,2.90
2023-04-01T14:23:04.867Z,3.60
2023-04-01T14:26:02.414Z,4.80
2023-04-01T14:28:54.611Z,4.70
2023-04-01T14:31:56.137Z,5.50
2023-04-01T14:34:38.968Z,6.10
2023-04-01T14:37:16.818Z,4.80
2023-04-01T14:40:24.306Z,4.70
2023-04-01T14:43:07.030Z,4.20
2023-04-01T14:46:06.438Z,4.30
2023-04-01T14:48:39.784Z,4.80
2023-04-01T14:51:17.964Z,5.40
2023-04-01T14:54:01.339Z,4.50
2023-04-01T14:56:45.911Z,5.00
2023-04-01T14:59:28.399Z,5.10
2023-04-01T15:02:04.940Z,5.00
2023-04-01T15:04:44.926Z,4.90
2023-04-01T15:07:32.642Z,5.80
2023-04-01T15:10:07.477Z,5.60
2023-04-01T15:13:10.881Z,5.10
2023-04-01T15:16:00.356Z,4.00
2023-04-01T15:18:45.968Z,3.50
2023-04-01T15:21:25.849Z,3.40
2023-04-01T15:23:56.201Z,5.90
2023-04-01T15:26:54.779Z,4.20
2023-04-01T15:29:49.165Z,4.90
2023-04-01T15:32:46.019Z,8.10
2023-04-01T15:35:38.393Z,7.10
2023-04-01T15:38:42.139Z,9.70
2023-04-01T15:41:27.812Z,11.10
2023-04-01T15:43:55.525Z,6.40
2023-04-01T15:46:47.743Z,8.70
2023-04-01T15:49:42.289Z,5.30
2023-04-01T15:52:39.322Z,6.90
2023-04-01T15:55:07.398Z,9.40
2023-04-01T15:57:49.994Z,7.70
2023-04-01T16:00:28.918Z,6.80
2023-04-01T16:03:24.779Z,5.70
2023-04-01T16:06:09.930Z,4.80
2023-04-01T16:08:59.314Z,7.70
2023-04-01T16:12:03.081Z,5.60
2023-04-01T16:14:36.506Z,6.10
2023-04-01T16:17:28.612Z,6.00
2023-04-01T16:20:03.596Z,6.00
2023-04-01T16:22:36.334Z,4.50
2023-04-01T16:25:36.013Z,3.80
2023-04-01T16:28:33.020Z,5.40
2023-04-01T16:31:31.848Z,5.40
2023-04-01T16:34:11.742Z,6.80
2023-04-01T16:36:52.806Z,5.20
2023-04-01T16:39:29.874Z,6.10
2023-04-01T16:42:25.903Z,4.80
2023-04-01T16:45:01.209Z,5.50
2023-04-01T16:47:57.487Z,5.60
2023-04-01T16:50:32.739Z,5.70
2023-04-01T16:53:21.090Z,5.80
2023-04-01T16:56:01.845Z,4.80
2023-04-01T16:58:56.091Z,4.30
2023-04-01T17:01:33.965Z,6.00
2023-04-01T17:04:15.704Z,5.00
2023-04-01T17:07:06.601Z,4.90
2023-04-01T17:10:10.634Z,4.40
2023-04-01T17:12:48.197Z,8.00
2023-04-01T17:15:34.215Z,6.20
2023-04-01T17:18:33.130Z,5.80
2023-04-01T17:21:10.909Z,5.80
2023-04-01T17:23:52.449Z,4.40
2023-04-01T17:26:43.418Z,5.20
2023-04-01T17:29:32.968Z,7.00
2023-04-01T17:32:49.150Z,6.00
2023-04-01T17:35:28.988Z,6.70
2023-04-01T17:38:23.116Z,7.20
2023-04-01T17:41:52.419Z,5.50
2023-04-01T17:44:23.013Z,6.40
2023-04-01T17:47:24.170Z,6.50
2023-04-01T17:50:09.133Z,11.20
2023-04-01T17:52:55.641Z,9.60
2023-04-01T17:55:38.177Z,5.90
2023-04-01T17:58:30.072Z,5.10
2023-04-01T18:01:06.853Z,5.70
2023-04-01T18:03:34.623Z,4.70
2023-04-01T18:06:29.780Z,7.30
2023-04-01T18:09:01.983Z,8.10
2023-04-01T18:11:53.762Z,7.40
2023-04-01T18:14:27.653Z,10.10
2023-04-01T18:17:28.565Z,5.70
2023-04-01T18:20:10.182Z,9.20
2023-04-01T18:22:56.345Z,8.80
2023-04-01T18:25:28.720Z,8.30
2023-04-01T18:28:22.395Z,7.80
2023-04-01T18:30:58.773Z,9.10
2023-04-01T18:33:47.364Z,9.80
2023-04-01T18:36:53.006Z,9.60
2023-04-01T18:39:40.626Z,9.20
2023-04-01T18:42:42.352Z,9.80
2023-04-01T18:45:23.881Z,10.50
2023-04-01T18:48:03.712Z,8.60
2023-04-01T18:50:54.029Z,9.00
2023-04-01T18:53:30.847Z,9.90
2023-04-01T18:55:58.466Z,12.20
2023-04-01T18:58:36.517Z,12.30
2023-04-01T19:01:38.249Z,12.50
2023-04-01T19:04:31.892Z,16.70
2023-04-01T19:07:19.563Z,10.40
2023-04-01T19:09:50.328Z,14.60
2023-04-01T19:12:27.119Z,8.40
2023-04-01T19:15:08.415Z,6.30
2023-04-01T19:18:14.929Z,8.60
2023-04-01T19:20:58.928Z,15.30
2023-04-01T19:24:16.904Z,11.30
2023-04-01T19:27:03.507Z,7.30
2023-04-01T19:29:48.064Z,10.00
2023-04-01T19:32:34.392Z,10.60
2023-04-01T19:35:19.482Z,7.60
2023-04-01T19:38:20.499Z,9.50
2023-04-01T19:40:54.679Z,9.20
2023-04-01T19:43:48.510Z,9.70
2023-04-01T19:46:40.992Z,11.80
2023-04-01T19:49:34.801Z,7.80
2023-04-01T19:52:14.793Z,12.00
2023-04-01T19:54:58.271Z,11.90
2023-04-01T19:57:44.574Z,12.00
2023-04-01T20:00:33.406Z,9.90
2023-04-01T20:03:38.909Z,7.80
2023-04-01T20:06:39.461Z,6.70
2023-04-01T20:09:27.228Z,5.90
2023-04-01T20:12:22.901Z,6.50
2023-04-01T20:14:56.351Z,7.20
2023-04-01T20:17:31.645Z,7.30
2023-04-01T20:20:01.786Z,8.70
2023-04-01T20:22:39.707Z,8.60
2023-04-01T20:25:16.545Z,5.20
2023-04-01T20:27:53.209Z,7.40
2023-04-01T20:31:02.592Z,6.90
2023-04-01T20:33:46.870Z,8.50
2023-04-01T20:36:28.211Z,8.20
2023-04-01T20:39:20.671Z,7.80
2023-04-01T20:42:10.303Z,7.60
2023-04-01T20:44:58.959Z,7.30
2023-04-01T20:47:48.788Z,7.90
2023-04-01T20:50:31.866Z,7.10
2023-04-01T20:53:21.639Z,6.60
2023-04-01T20:56:23.063Z,7.20
2023-04-01T20:59:11.646Z,9.20
2023-04-01T21:01:54.041Z,9.70
2023-04-01T21:04:59.474Z,9.90
2023-04-01T21:08:21.841Z,8.40
2023-04-01T21:11:11.542Z,6.40
2023-04-01T21:13:55.358Z,7.60
2023-04-01T21:17:07.722Z,7.80
2023-04-01T21:20:01.308Z,7.20
2023-04-01T21:22:37.818Z,7.50
2023-04-01T21:25:24.308Z,7.10
2023-04-01T21:28:23.304Z,6.50
2023-04-01T21:31:09.548Z,5.80
2023-04-01T21:33:45.874Z,5.50
2023-04-01T21:36:42.396Z,6.40
2023-04-01T21:39:34.936Z,5.10
2023-04-01T21:42:22.813Z,5.60
2023-04-01T21:45:14.192Z,5.40
2023-04-01T21:48:11.009Z,5.50
2023-04-01T21:51:10.484Z,4.00
2023-04-01T21:53:51.641Z,4.10
2023-04-01T21:56:50.917Z,3.80
2023-04-01T21:59:30.715Z,5.10
2023-04-01T22:02:36.189Z,4.80
2023-04-01T22:05:18.580Z,5.10
2023-04-01T22:07:58.762Z,5.90
2023-04-01T22:10:46.981Z,7.70
2023-04-01T22:13:26.941Z,4.90
2023-04-01T22:16:19.851Z,5.10
2023-04-01T22:18:54.233Z,6.00
2023-04-01T22:21:31.218Z,7.20
2023-04-01T22:24:27.631Z,5.80
2023-04-01T22:32:36.749Z,5.50
2023-04-01T22:35:09.786Z,5.20
2023-04-01T22:37:41.517Z,5.90
2023-04-01T22:40:18.870Z,6.80
2023-04-01T22:42:54.535Z,9.30
2023-04-01T22:45:30.326Z,7.00
2023-04-01T22:48:16.788Z,6.80
2023-04-01T22:51:07.013Z,9.50
2023-04-01T22:54:05.878Z,8.10
2023-04-01T22:56:59.962Z,5.70
2023-04-01T22:59:40.121Z,7.80
2023-04-01T23:02:18.392Z,6.20
2023-04-01T23:04:53.422Z,7.50
2023-04-01T23:07:49.909Z,8.90
2023-04-01T23:12:59.909Z,5.30
2023-04-01T23:15:29.523Z,5.90
2023-04-01T23:18:17.873Z,7.10
2023-04-01T23:20:54.392Z,5.90
2023-04-01T23:23:33.493Z,10.30
2023-04-01T23:26:22.052Z,7.20
2023-04-01T23:28:53.174Z,7.00
2023-04-01T23:31:33.959Z,8.40
2023-04-01T23:34:14.095Z,7.60
2023-04-01T23:36:48.726Z,6.40
2023-04-01T23:39:38.108Z,7.50
2023-04-01T23:42:07.954Z,5.70
2023-04-01T23:44:37.226Z,6.40
2023-04-01T23:47:07.428Z,7.80
2023-04-01T23:49:40.562Z,7.60
2023-04-01T23:52:28.839Z,9.20
2023-04-01T23:55:02.646Z,7.60
2023-04-01T23:57:33.166Z,9.40
